Terminal Aerodrome Forecast
Issued by NWS

Home | Current Version | Previous Version | Text Only | Print | Product List | Glossary On
Versions: 1 2 3 4 5 6 7 8 9 10 11 12 13 14 15 16 17
000
FTUS41 KGYX 261322 AAA
TAFHIE
TAF AMD
KHIE 261322Z 2613/2712 00000KT 2SM -RA BR OVC004
     FM261500 28005KT 5SM -SHRA BR BKN015 OVC025
     FM261900 27006KT P6SM BKN025 OVC050=

USA.gov is the U.S. government's official web portal to all federal, state and local government web resources and services.